createdAt,value
2019-05-11T00:14:44.223Z,53.9
2019-05-11T00:29:58.920Z,54.5
2019-05-11T00:45:14.332Z,57.6
2019-05-11T01:00:29.391Z,58.5
2019-05-11T01:15:44.159Z,58.4
2019-05-11T01:30:51.612Z,59.5
2019-05-11T01:46:13.603Z,60
2019-05-11T02:01:28.260Z,62
2019-05-11T02:16:42.497Z,62.8
2019-05-11T02:31:56.904Z,64.5
2019-05-11T02:47:11.114Z,67
2019-05-11T03:02:26.791Z,67.7
2019-05-11T03:17:39.496Z,69.5
2019-05-11T03:32:53.853Z,70.3
2019-05-11T03:48:02.189Z,70.6
2019-05-11T04:03:21.639Z,70.6
2019-05-11T04:18:35.743Z,70.3
2019-05-11T04:33:49.789Z,69.7
2019-05-11T04:48:52.219Z,69.6
2019-05-11T05:04:18.338Z,66.3
2019-05-11T05:19:32.822Z,65.2
2019-05-11T05:34:47.359Z,60.1
2019-05-11T05:50:02.130Z,58.5
2019-05-11T06:05:13.736Z,58
2019-05-11T06:20:32.141Z,58
2019-05-11T06:35:47.449Z,56.5
2019-05-11T06:51:02.895Z,52.5
2019-05-11T07:06:08.709Z,51.4
2019-05-11T07:21:34.552Z,50.8
2019-05-11T07:36:50.331Z,50.9
2019-05-11T07:52:08.069Z,52
2019-05-11T08:07:21.944Z,52
2019-05-11T08:22:34.554Z,55.1
2019-05-11T08:37:53.176Z,59.1
2019-05-11T08:53:08.976Z,63.6
2019-05-11T09:08:24.592Z,66.2
2019-05-11T09:23:39.893Z,69.8
2019-05-11T09:38:58.326Z,75.8
2019-05-11T09:54:10.934Z,77.1
2019-05-11T10:09:28.346Z,77.2
2019-05-11T10:24:41.555Z,79.2
2019-05-11T10:39:54.276Z,80.9
2019-05-11T10:55:12.344Z,80.5
2019-05-11T11:10:28.922Z,77.5
2019-05-11T11:25:43.844Z,77.8
2019-05-11T11:40:48.572Z,76.3
2019-05-11T11:56:15.102Z,77.8
2019-05-11T12:11:30.767Z,77.4
2019-05-11T12:26:48.307Z,79
2019-05-11T12:42:01.800Z,80.7
2019-05-11T12:57:12.678Z,81.9
2019-05-11T13:12:32.801Z,83.5
2019-05-11T13:27:49.537Z,83.9
2019-05-11T13:43:03.800Z,84.9
2019-05-11T13:58:08.585Z,87.8
2019-05-11T14:13:34.546Z,87
2019-05-11T14:28:50.129Z,87.2
2019-05-11T14:44:05.774Z,87.6
2019-05-11T14:59:21.869Z,83.8
2019-05-11T15:14:32.894Z,80.9
2019-05-11T15:29:53.849Z,83
2019-05-11T15:45:10.905Z,84.2
2019-05-11T16:00:25.521Z,84.2
2019-05-11T16:15:28.616Z,83.5
2019-05-11T16:30:58.633Z,82.9
2019-05-11T16:46:12.681Z,82.9
2019-05-11T17:01:28.508Z,80.9
2019-05-11T17:16:44.277Z,82.2
2019-05-11T17:31:53.091Z,83
2019-05-11T17:47:18.118Z,84.3
2019-05-11T18:02:30.307Z,86.4
2019-05-11T18:17:45.349Z,87
2019-05-11T18:32:49.459Z,86.5
2019-05-11T18:48:15.267Z,85.8
2019-05-11T19:03:30.182Z,85.4
2019-05-11T19:18:45.039Z,85
2019-05-11T19:33:59.777Z,84.9
2019-05-11T19:49:09.043Z,85.6
2019-05-11T20:04:29.141Z,87.9
2019-05-11T20:19:44.018Z,83.5
2019-05-11T20:34:58.623Z,85.7
2019-05-11T20:50:00.642Z,88.6
2019-05-11T21:05:27.549Z,90.3
2019-05-11T21:20:41.930Z,91.6
2019-05-11T21:36:00.894Z,92.8
2019-05-11T21:51:10.531Z,93.6
2019-05-11T22:06:19.983Z,94.3
2019-05-11T22:21:39.058Z,95
2019-05-11T22:36:53.324Z,95.3
2019-05-11T22:52:08.952Z,94.2
2019-05-11T23:07:10.467Z,89.3
2019-05-11T23:22:57.313Z,93.2
2019-05-11T23:38:05.890Z,91.4
2019-05-11T23:53:33.427Z,88.3
